Flight Track Log - Related Links

Times and Time Zones

All times are in EDT time to prevent confusion due to time zone crossing. See the BJS542 flight status page for this flight to view local times or setup timezone preferences in your user account.

Time Position Orientation Groundspeed Altitude Reporting Facility
EDT Latitude Longitude Course Direction KTS MPH feet Rate Location/Type
Sun 03:23:08 PM 43.0667 -70.8000 200° South 166 191 1,100  Level KA90
Sun 03:23:57 PM 43.0333 -70.8167 200° South 190 219 2,500 3,518 Climbing KA90
Sun 03:26:48 PM 43.0667 -71.0192 283° West 230 265 14,000 3,039 Climbing Boston Center
Sun 03:27:48 PM 43.0994 -71.1406 290° West 280 322 14,200 1,650 Climbing Boston Center
Sun 03:28:48 PM 43.1342 -71.2708 290° West 350 403 17,300 2,700 Climbing Boston Center
Sun 03:29:48 PM 43.1272 -71.4189 266° West 395 455 19,600 1,339 Climbing Boston Center
Sun 03:30:49 PM 43.1075 -71.5528 259° West 395 455 20,000 200 Climbing Boston Center
Sun 03:31:48 PM 43.0858 -71.7039 259° West 402 463 20,000  Level Boston Center
Sun 03:32:48 PM 43.0678 -71.8547 261° West 407 468 20,000  Level Boston Center
Sun 03:33:48 PM 43.0747 -71.9994 274° West 402 463 20,000  Level Boston Center
Sun 03:34:48 PM 43.0817 -72.1500 274° West 402 463 20,000  Level Boston Center
Sun 03:35:48 PM 43.0672 -72.2839 262° West 388 447 20,000  Level Boston Center
Sun 03:36:48 PM 43.0089 -72.4117 238° Southwest 374 430 20,000  Level Boston Center
Sun 03:37:48 PM 42.9172 -72.5053 217° Southwest 383 441 20,000  Level Boston Center
Sun 03:38:48 PM 42.8317 -72.5986 219° Southwest 388 447 20,000  Level Boston Center
Sun 03:39:48 PM 42.7336 -72.6861 213° Southwest 411 473 20,000  Level Boston Center
Sun 03:40:48 PM 42.6478 -72.7789 218° Southwest 411 473 20,000  Level Boston Center
Sun 03:41:48 PM 42.5622 -72.8769 220° Southwest 416 479 20,000  Level Boston Center
Sun 03:42:48 PM 42.4742 -72.9750 219° Southwest 411 473 20,000  Level Boston Center
Sun 03:43:48 PM 42.4069 -73.0867 231° Southwest 403 464 20,000  Level Boston Center
Sun 03:44:48 PM 42.3497 -73.2125 238° Southwest 395 455 20,000  Level Boston Center
Sun 03:45:48 PM 42.2969 -73.3356 240° Southwest 417 480 20,000  Level Boston Center
Sun 03:46:48 PM 42.2003 -73.4153 211° Southwest 385 443 20,000  Level Boston Center
Sun 03:47:48 PM 42.1039 -73.4894 210° Southwest 391 450 20,000  Level Boston Center
Sun 03:48:48 PM 41.9925 -73.5825 212° Southwest 416 479 20,000  Level Boston Center
Sun 03:49:48 PM 41.8978 -73.6589 211° Southwest 421 484 20,000  Level Boston Center
Sun 03:50:48 PM 41.8011 -73.7378 211° Southwest 409 471 20,000  Level Boston Center
Sun 03:52:30 PM 41.6567 -73.8503 210° Southwest 409 471 20,000  Level New York Center
Sun 03:53:28 PM 41.5544 -73.9314 211° Southwest 409 471 20,000 -50 Level New York Center
Sun 03:54:29 PM 41.4650 -74.0047 212° Southwest 396 456 19,900  Descending New York Center
Sun 03:55:30 PM 41.3822 -74.0697 211° Southwest 373 429 20,000  Climbing New York Center
Sun 03:56:31 PM 41.2958 -74.1014 195° South 326 375 19,900 -51 Descending New York Center
Sun 03:57:28 PM 41.2019 -74.1078 183° South 331 381 19,900 -462 Level New York Center
Sun 03:58:28 PM 41.1058 -74.1194 185° South 337 388 19,000 -419 Descending New York Center
Sun 03:59:37 PM 41.0000 -74.1333 186° South 326 375 19,000  Level New York TRACON
Sun 04:00:43 PM 40.9167 -74.0833 156° South 332 382 19,000 -190 Level New York TRACON
Sun 04:01:43 PM 40.8500 -73.9833 131° Southeast 325 374 18,600 -750 Descending New York TRACON
Sun 04:02:43 PM 40.8000 -73.8833 123° Southeast 321 369 17,500 -1,450 Descending New York TRACON
Sun 04:03:43 PM 40.7500 -73.8000 128° Southeast 326 375 15,700 -1,850 Descending New York TRACON
Sun 04:04:43 PM 40.7000 -73.7000 123° Southeast 349 402 13,800 -1,750 Descending New York TRACON
Sun 04:05:43 PM 40.6667 -73.6000 114° Southeast 301 346 12,200 -900 Descending New York TRACON
Sun 04:06:43 PM 40.6333 -73.5000 114° Southeast 299 344 12,000 -650 Descending New York TRACON
Sun 04:07:43 PM 40.5667 -73.5000 180° South 294 338 10,900 -1,550 Descending New York TRACON
Sun 04:08:43 PM 40.4833 -73.5333 197° South 293 337 8,900 -1,700 Descending New York TRACON
Sun 04:09:43 PM 40.4167 -73.5833 210° Southwest 283 326 7,500 -1,500 Descending New York TRACON
Sun 04:10:43 PM 40.3500 -73.6500 217° Southwest 275 316 5,900 -1,550 Descending New York TRACON
Sun 04:11:43 PM 40.3167 -73.7167 237° Southwest 262 302 4,400 -1,450 Descending New York TRACON
Sun 04:12:43 PM 40.3167 -73.8167 270° West 257 296 3,000 -700 Descending New York TRACON
Sun 04:13:43 PM 40.3500 -73.8833 303° West 226 260 3,000  Level New York TRACON
Sun 04:14:43 PM 40.3833 -73.9333 311° West 192 221 3,000  Level New York TRACON
Sun 04:15:43 PM 40.4333 -73.9833 323° Northwest 191 220 3,000  Level New York TRACON
Sun 04:16:43 PM 40.4833 -74.0000 346° North 203 234 3,000 -50 Level New York TRACON
Sun 04:17:43 PM 40.5333 -73.9667 27° Northeast 204 235 2,900 -400 Descending New York TRACON
Sun 04:18:43 PM 40.5667 -73.9333 37° Northeast 193 222 2,200 -750 Descending New York TRACON
Sun 04:19:43 PM 40.6167 -73.8833 37° Northeast 208 239 1,400 -700 Descending New York TRACON
Sun 04:20:43 PM 40.6667 -73.8500 27° Northeast 157 181 800 -600 Descending New York TRACON

Login

Don't have an account? Register now (free) for customized features, flight alerts, and more!